Time;durP1;ratioP1;P1;durP2;ratioP2;P2;SDS_P1;SDS_P2;PMS_P1;PMS_P2;Temp;Humidity;BMP_temperature;BMP_pressure;BME280_temperature;BME280_humidity;BME280_pressure;Samples;Min_cycle;Max_cycle;Signal;HPM_P1;HPM_P2
2022/11/07 00:01:45;;;;;;;11.68;9.10;;;10.60;99.90;;;;;;5015891;28;20050;-65
2022/11/07 00:04:12;;;;;;;18.52;10.48;;;10.60;99.90;;;;;;5001104;28;20058;-64
2022/11/07 00:06:39;;;;;;;29.40;11.18;;;10.60;99.90;;;;;;5001858;28;20046;-70
2022/11/07 00:09:06;;;;;;;13.05;8.60;;;10.60;99.90;;;;;;4997673;28;20104;-71
2022/11/07 00:11:33;;;;;;;12.63;9.57;;;10.60;99.90;;;;;;4998324;28;20137;-71
2022/11/07 00:14:00;;;;;;;11.35;9.45;;;10.60;99.90;;;;;;4998014;28;20252;-68
2022/11/07 00:16:28;;;;;;;21.33;10.90;;;10.60;99.90;;;;;;5000926;28;20057;-64
2022/11/07 00:18:55;;;;;;;17.33;9.82;;;10.60;99.90;;;;;;5018964;28;20309;-63
2022/11/07 00:21:22;;;;;;;19.10;9.02;;;10.60;99.90;;;;;;5002868;28;20500;-68
2022/11/07 00:23:49;;;;;;;13.48;8.23;;;10.60;99.90;;;;;;5002075;28;20383;-65
2022/11/07 00:26:16;;;;;;;21.77;8.05;;;10.60;99.90;;;;;;5001542;28;20190;-64
2022/11/07 00:28:43;;;;;;;11.20;8.98;;;10.60;99.90;;;;;;5013166;28;20100;-64
2022/11/07 00:31:12;;;;;;;12.32;7.53;;;10.60;99.90;;;;;;4999001;28;20060;-65
2022/11/07 00:33:39;;;;;;;9.10;6.93;;;10.60;99.90;;;;;;5001348;28;20046;-65
2022/11/07 00:36:07;;;;;;;17.00;6.85;;;10.60;99.90;;;;;;5000764;28;20064;-73
2022/11/07 00:38:34;;;;;;;10.57;7.28;;;10.60;99.90;;;;;;5004542;28;20049;-63
2022/11/07 00:41:06;;;;;;;12.25;6.53;;;10.60;99.90;;;;;;4997562;28;20052;-73
2022/11/07 00:43:33;;;;;;;11.57;7.28;;;10.60;99.90;;;;;;5017844;28;20427;-68
2022/11/07 00:46:02;;;;;;;11.23;6.05;;;10.60;99.90;;;;;;5020664;28;20475;-68
2022/11/07 00:48:29;;;;;;;9.38;6.18;;;10.60;99.90;;;;;;5021513;28;20073;-64
2022/11/07 00:50:56;;;;;;;10.30;5.47;;;10.60;99.90;;;;;;5020010;28;20388;-70
2022/11/07 00:53:23;;;;;;;9.82;5.63;;;10.60;99.90;;;;;;5019763;28;20057;-64
2022/11/07 00:55:50;;;;;;;8.52;5.60;;;10.60;99.90;;;;;;5018236;28;20168;-67
2022/11/07 00:58:17;;;;;;;19.70;7.00;;;10.60;99.90;;;;;;5021440;28;20077;-63
2022/11/07 01:00:44;;;;;;;8.57;5.50;;;10.60;99.90;;;;;;5022401;28;20191;-68
2022/11/07 01:05:59;;;;;;;14.10;5.45;;;10.60;99.90;;;;;;5021956;28;20416;-71
2022/11/07 01:08:27;;;;;;;17.17;6.38;;;10.60;99.90;;;;;;5024246;28;20127;-65
2022/11/07 01:10:54;;;;;;;9.40;5.50;;;10.60;99.90;;;;;;5018457;28;20068;-66
2022/11/07 01:13:22;;;;;;;10.88;6.22;;;10.60;99.90;;;;;;5020701;28;20456;-64
2022/11/07 01:15:49;;;;;;;11.93;5.43;;;10.60;99.90;;;;;;5020982;28;20053;-64
2022/11/07 01:18:16;;;;;;;10.18;5.20;;;10.60;99.90;;;;;;5021577;28;20049;-64
2022/11/07 01:20:43;;;;;;;8.68;4.90;;;10.60;99.90;;;;;;5019222;28;20082;-70
2022/11/07 01:23:10;;;;;;;15.45;6.78;;;10.60;99.90;;;;;;5019774;28;20076;-64
2022/11/07 01:25:38;;;;;;;11.15;4.57;;;10.60;99.90;;;;;;5022166;28;20045;-67
2022/11/07 01:28:06;;;;;;;9.95;5.50;;;10.50;99.90;;;;;;5023774;28;20136;-70
2022/11/07 01:30:36;;;;;;;8.65;4.63;;;10.60;99.90;;;;;;5023990;28;20064;-66
2022/11/07 01:33:03;;;;;;;16.88;5.97;;;10.50;99.90;;;;;;5017893;28;20574;-68
2022/11/07 01:35:31;;;;;;;10.30;4.18;;;10.60;99.90;;;;;;5020071;28;20045;-74
2022/11/07 01:37:58;;;;;;;8.18;4.50;;;10.60;99.90;;;;;;5022988;28;20200;-69
2022/11/07 01:40:26;;;;;;;7.78;4.07;;;10.60;99.90;;;;;;5022716;28;20542;-65
2022/11/07 01:42:53;;;;;;;7.35;4.57;;;10.50;99.90;;;;;;5007664;28;20728;-64
2022/11/07 01:45:27;;;;;;;5.68;4.45;;;10.60;99.90;;;;;;5000820;28;23495;-65
2022/11/07 01:47:57;;;;;;;10.82;4.53;;;10.50;99.90;;;;;;4995101;28;20474;-65
2022/11/07 01:50:25;;;;;;;9.65;4.68;;;10.50;99.90;;;;;;5003830;28;20693;-63
2022/11/07 01:52:55;;;;;;;9.35;4.95;;;10.50;99.90;;;;;;5005007;28;20240;-68
2022/11/07 01:55:28;;;;;;;10.18;4.65;;;10.50;99.90;;;;;;5021048;28;20061;-68
2022/11/07 01:57:59;;;;;;;11.07;4.80;;;10.50;99.90;;;;;;5019924;28;20054;-64
2022/11/07 02:09:13;;;;;;;6.78;4.25;;;10.40;99.90;;;;;;5067496;28;20039;-66
2022/11/07 02:11:41;;;;;;;8.30;4.30;;;10.30;99.90;;;;;;5058748;28;20075;-64
2022/11/07 02:14:17;;;;;;;6.78;5.38;;;10.30;99.90;;;;;;5065571;28;20090;-64
2022/11/07 02:16:45;;;;;;;9.68;5.57;;;10.30;99.90;;;;;;5062248;28;20443;-69
2022/11/07 02:19:30;;;;;;;7.40;3.78;;;10.20;99.90;;;;;;5056637;28;20067;-74
2022/11/07 02:22:17;;;;;;;7.47;5.15;;;10.20;99.90;;;;;;5039881;28;20049;-63
2022/11/07 02:24:47;;;;;;;7.20;3.70;;;10.20;99.90;;;;;;5062928;28;20062;-65
2022/11/07 02:27:17;;;;;;;3.58;3.10;;;10.20;99.90;;;;;;5060000;28;20132;-65
2022/11/07 02:29:48;;;;;;;10.32;5.28;;;10.10;99.90;;;;;;5063269;28;20056;-68
2022/11/07 02:32:15;;;;;;;6.65;5.38;;;10.10;99.90;;;;;;5063069;28;20102;-63
2022/11/07 02:34:42;;;;;;;7.60;4.03;;;10.10;99.90;;;;;;5065447;28;20481;-65
2022/11/07 02:37:21;;;;;;;9.98;5.40;;;10.00;99.90;;;;;;5056585;28;20504;-66
2022/11/07 02:39:48;;;;;;;6.50;4.43;;;10.00;99.90;;;;;;5064027;28;20110;-64
2022/11/07 02:42:16;;;;;;;6.32;4.00;;;10.00;99.90;;;;;;5060970;28;21246;-73
2022/11/07 02:44:43;;;;;;;6.40;5.10;;;9.90;99.90;;;;;;5062411;28;20164;-65
2022/11/07 02:47:10;;;;;;;8.07;4.70;;;9.90;99.90;;;;;;5055486;28;20178;-64
2022/11/07 02:49:37;;;;;;;7.57;3.80;;;9.90;99.90;;;;;;5065712;28;20363;-66
2022/11/07 02:52:04;;;;;;;10.73;4.47;;;9.80;99.90;;;;;;5062863;28;20135;-65
2022/11/07 02:54:31;;;;;;;11.07;4.35;;;9.80;99.90;;;;;;5066767;28;20413;-68
2022/11/07 02:56:58;;;;;;;18.00;5.03;;;9.70;99.90;;;;;;5064189;28;20698;-66
2022/11/07 02:59:24;;;;;;;7.47;4.28;;;9.70;99.90;;;;;;5059165;28;20075;-63
2022/11/07 03:01:53;;;;;;;6.40;3.90;;;9.70;99.90;;;;;;5062202;28;20135;-66
2022/11/07 03:04:20;;;;;;;11.27;4.90;;;9.60;99.90;;;;;;5064518;28;20090;-71
2022/11/07 03:06:47;;;;;;;6.07;3.90;;;9.60;99.90;;;;;;5053349;28;20051;-70
2022/11/07 03:09:14;;;;;;;10.02;4.28;;;9.60;99.90;;;;;;5053456;28;20941;-65
2022/11/07 03:11:41;;;;;;;7.85;4.30;;;9.50;99.90;;;;;;5055182;28;20810;-66
2022/11/07 03:14:07;;;;;;;6.80;4.25;;;9.50;99.90;;;;;;5061745;28;20922;-65
2022/11/07 03:16:34;;;;;;;7.32;4.78;;;9.50;99.90;;;;;;5056443;28;20763;-66
2022/11/07 03:19:01;;;;;;;7.13;4.90;;;9.50;99.90;;;;;;5058373;28;20052;-64
2022/11/07 03:21:28;;;;;;;8.73;4.32;;;9.40;99.90;;;;;;5052765;28;20063;-65
2022/11/07 03:23:55;;;;;;;8.80;4.78;;;9.40;99.90;;;;;;5059636;28;20052;-64
2022/11/07 03:26:22;;;;;;;7.75;4.72;;;9.40;99.90;;;;;;5061789;28;20433;-66
2022/11/07 03:28:49;;;;;;;9.93;4.38;;;9.40;99.90;;;;;;5050164;28;20089;-64
2022/11/07 03:31:15;;;;;;;7.55;4.65;;;9.30;99.90;;;;;;5058522;28;20164;-64
2022/11/07 03:33:42;;;;;;;8.38;4.38;;;9.30;99.90;;;;;;5050686;28;20048;-68
2022/11/07 03:36:09;;;;;;;7.82;4.65;;;9.20;99.90;;;;;;5042226;28;20045;-73
2022/11/07 03:38:36;;;;;;;9.57;4.75;;;9.20;99.90;;;;;;5061608;28;20450;-68
2022/11/07 03:41:03;;;;;;;8.80;4.65;;;9.20;99.90;;;;;;5049695;28;20461;-69
2022/11/07 03:43:30;;;;;;;8.70;4.10;;;9.20;99.90;;;;;;5059167;28;20568;-66
2022/11/07 03:45:57;;;;;;;6.60;4.22;;;9.20;99.90;;;;;;5054411;28;20059;-68
2022/11/07 03:48:24;;;;;;;10.98;5.00;;;9.20;99.90;;;;;;5062418;28;20054;-67
2022/11/07 03:50:50;;;;;;;11.10;5.63;;;9.20;99.90;;;;;;5059354;28;20122;-70
2022/11/07 03:53:17;;;;;;;5.53;3.97;;;9.20;99.90;;;;;;5058645;28;20153;-66
2022/11/07 03:55:53;;;;;;;10.73;5.78;;;9.20;99.90;;;;;;5051401;28;21161;-69
2022/11/07 03:58:21;;;;;;;9.65;5.40;;;9.20;99.90;;;;;;5056269;28;20073;-64
2022/11/07 04:00:47;;;;;;;11.65;6.75;;;9.20;99.90;;;;;;5049386;28;20041;-70
2022/11/07 04:03:14;;;;;;;9.63;5.40;;;9.20;99.90;;;;;;5060568;28;20171;-66
2022/11/07 04:05:42;;;;;;;12.43;5.80;;;9.20;99.90;;;;;;5060469;28;20052;-64
2022/11/07 04:08:09;;;;;;;10.27;5.57;;;9.20;99.90;;;;;;5059309;28;20459;-66
2022/11/07 04:10:36;;;;;;;10.30;5.45;;;9.10;99.90;;;;;;5056918;28;20044;-68
2022/11/07 04:18:39;;;;;;;12.73;6.68;;;9.10;99.90;;;;;;5058282;28;20126;-65
2022/11/07 04:21:06;;;;;;;10.45;6.05;;;9.10;99.90;;;;;;5056957;28;20044;-70
2022/11/07 04:23:33;;;;;;;8.30;5.72;;;9.10;99.90;;;;;;5061585;28;20045;-64
2022/11/07 04:28:45;;;;;;;10.73;6.80;;;9.10;99.90;;;;;;5056387;28;20040;-64
2022/11/07 04:31:12;;;;;;;9.98;5.38;;;9.10;99.90;;;;;;5055887;28;20152;-69
2022/11/07 04:33:39;;;;;;;10.65;6.28;;;9.00;99.90;;;;;;5063760;28;20028;-65
2022/11/07 04:36:06;;;;;;;7.90;5.93;;;9.00;99.90;;;;;;5061229;28;20055;-65
2022/11/07 04:38:33;;;;;;;12.55;5.80;;;9.00;99.90;;;;;;5063941;28;20498;-68
2022/11/07 04:41:00;;;;;;;7.57;5.07;;;9.00;99.90;;;;;;5047533;28;20063;-65
2022/11/07 04:43:27;;;;;;;10.43;7.10;;;9.00;99.90;;;;;;5062987;28;20110;-64
2022/11/07 04:45:54;;;;;;;11.77;5.82;;;8.90;99.90;;;;;;5057176;28;20048;-67
2022/11/07 04:48:21;;;;;;;7.80;6.10;;;8.90;99.90;;;;;;5070697;28;20120;-64
2022/11/07 04:50:48;;;;;;;12.90;6.47;;;9.00;99.90;;;;;;5066626;28;20139;-64
2022/11/07 04:53:17;;;;;;;16.38;7.55;;;8.90;99.90;;;;;;5065291;28;20121;-65
2022/11/07 04:55:44;;;;;;;16.52;6.20;;;8.90;99.90;;;;;;5066171;28;20397;-65
2022/11/07 04:58:11;;;;;;;11.15;7.47;;;8.90;99.90;;;;;;5061977;28;20048;-64
2022/11/07 05:00:37;;;;;;;10.13;6.85;;;8.90;99.90;;;;;;5064068;28;20053;-66
2022/11/07 05:03:04;;;;;;;11.05;6.43;;;8.90;99.90;;;;;;5059817;28;20501;-69
2022/11/07 05:05:31;;;;;;;12.05;6.40;;;8.90;99.90;;;;;;5062455;28;20520;-69
2022/11/07 05:07:58;;;;;;;10.73;7.32;;;8.90;99.90;;;;;;5065001;28;20416;-63
2022/11/07 05:10:27;;;;;;;12.18;6.40;;;8.90;99.90;;;;;;5056355;28;20083;-66
2022/11/07 05:12:55;;;;;;;10.50;6.65;;;8.90;99.90;;;;;;5060385;28;20139;-65
2022/11/07 05:15:22;;;;;;;8.90;6.28;;;8.90;99.90;;;;;;5057242;28;20504;-64
2022/11/07 05:17:49;;;;;;;8.95;6.30;;;8.90;99.90;;;;;;5052195;28;20089;-75
2022/11/07 05:20:29;;;;;;;13.80;7.18;;;8.80;99.90;;;;;;5059801;28;20080;-65
2022/11/07 05:23:13;;;;;;;13.68;7.03;;;8.90;99.90;;;;;;5065558;28;20049;-65
2022/11/07 05:25:52;;;;;;;12.63;6.70;;;8.90;99.90;;;;;;5047033;28;20532;-64
2022/11/07 05:28:24;;;;;;;10.27;7.03;;;8.90;99.90;;;;;;5059739;28;20041;-67
2022/11/07 05:31:03;;;;;;;15.70;8.43;;;8.90;99.90;;;;;;5047645;28;20048;-65
2022/11/07 05:33:30;;;;;;;16.52;7.10;;;8.90;99.90;;;;;;5067877;28;20469;-64
2022/11/07 05:36:27;;;;;;;14.85;7.82;;;8.90;99.90;;;;;;5062726;28;20049;-63
2022/11/07 05:38:54;;;;;;;11.02;7.97;;;8.90;99.90;;;;;;5063839;28;20103;-75
2022/11/07 05:41:21;;;;;;;11.65;6.30;;;8.90;99.90;;;;;;5061235;28;20422;-64
2022/11/07 05:43:48;;;;;;;10.55;7.13;;;8.90;99.90;;;;;;5054553;28;20462;-64
2022/11/07 05:46:15;;;;;;;14.73;7.20;;;9.00;99.90;;;;;;5048723;28;20569;-68
2022/11/07 05:48:42;;;;;;;12.02;7.00;;;9.00;99.90;;;;;;5053395;28;20047;-69
2022/11/07 05:51:09;;;;;;;13.75;6.97;;;9.00;99.90;;;;;;5062845;28;20382;-64
2022/11/07 05:53:36;;;;;;;11.55;6.88;;;9.10;99.90;;;;;;5064869;28;20112;-66
2022/11/07 05:56:03;;;;;;;13.05;7.82;;;9.10;99.90;;;;;;5051606;28;20709;-70
2022/11/07 05:58:30;;;;;;;12.88;7.90;;;9.10;99.90;;;;;;5062752;28;20045;-65
2022/11/07 06:01:04;;;;;;;12.65;6.53;;;9.20;99.90;;;;;;5056099;28;20077;-70
2022/11/07 06:03:32;;;;;;;13.55;7.75;;;9.20;99.90;;;;;;5056175;28;20048;-69
2022/11/07 06:05:59;;;;;;;12.45;8.00;;;9.20;99.90;;;;;;5061293;28;20135;-67
2022/11/07 06:08:25;;;;;;;11.77;7.35;;;9.20;99.90;;;;;;5053662;28;20040;-66
2022/11/07 06:10:52;;;;;;;10.57;8.00;;;9.30;99.90;;;;;;5061254;28;20163;-67
2022/11/07 06:13:19;;;;;;;12.48;6.53;;;9.20;99.90;;;;;;5058771;28;20467;-64
2022/11/07 06:15:46;;;;;;;15.80;8.35;;;9.30;99.90;;;;;;5056225;28;20070;-68
2022/11/07 06:18:17;;;;;;;11.82;8.25;;;9.30;99.90;;;;;;5047511;28;20051;-64
2022/11/07 06:20:45;;;;;;;9.57;7.28;;;9.30;99.90;;;;;;5060764;28;20198;-67
2022/11/07 06:23:12;;;;;;;14.18;6.40;;;9.30;99.90;;;;;;5051219;28;20065;-65
2022/11/07 06:25:40;;;;;;;13.80;7.07;;;9.30;99.90;;;;;;5059988;28;20052;-67
2022/11/07 06:28:09;;;;;;;14.70;6.90;;;9.30;99.90;;;;;;5057162;28;20221;-68
2022/11/07 06:30:36;;;;;;;15.80;7.03;;;9.30;99.90;;;;;;5063003;28;20159;-69
2022/11/07 06:33:06;;;;;;;11.45;6.00;;;9.30;99.90;;;;;;5057925;28;20045;-67
2022/11/07 06:35:33;;;;;;;11.07;6.15;;;9.30;99.90;;;;;;5059557;28;20134;-68
2022/11/07 06:38:05;;;;;;;10.82;6.05;;;9.30;99.90;;;;;;5062565;28;20044;-65
2022/11/07 06:40:32;;;;;;;15.23;7.28;;;9.30;99.90;;;;;;5065194;28;20127;-64
2022/11/07 06:43:06;;;;;;;10.57;7.20;;;9.30;99.90;;;;;;5059355;28;20825;-69
2022/11/07 06:45:33;;;;;;;12.38;6.80;;;9.30;99.90;;;;;;5059552;28;20746;-63
2022/11/07 06:48:00;;;;;;;12.65;6.60;;;9.30;99.90;;;;;;5053583;28;20043;-64
2022/11/07 06:50:27;;;;;;;14.20;7.93;;;9.30;99.90;;;;;;5055041;28;20051;-68
2022/11/07 06:52:54;;;;;;;11.20;6.32;;;9.30;99.90;;;;;;5063813;28;20052;-73
2022/11/07 06:55:21;;;;;;;8.40;6.97;;;9.30;99.90;;;;;;5055436;28;20132;-66
2022/11/07 06:57:48;;;;;;;9.50;6.95;;;9.30;99.90;;;;;;5050812;28;20148;-66
2022/11/07 07:00:15;;;;;;;12.38;7.97;;;9.30;99.90;;;;;;5059691;28;20128;-68
2022/11/07 07:02:42;;;;;;;14.35;6.72;;;9.30;99.90;;;;;;5059217;28;20057;-64
2022/11/07 07:05:24;;;;;;;13.10;8.60;;;9.20;99.90;;;;;;5043207;28;20055;-65
2022/11/07 07:07:53;;;;;;;13.88;7.72;;;9.30;99.90;;;;;;5053007;28;20427;-64
2022/11/07 07:10:20;;;;;;;15.60;7.28;;;9.30;99.90;;;;;;5053109;28;20071;-67
2022/11/07 07:12:47;;;;;;;14.40;7.68;;;9.30;99.90;;;;;;5062536;28;20051;-64
2022/11/07 07:15:14;;;;;;;10.98;7.32;;;9.30;99.90;;;;;;5061149;28;20057;-63
2022/11/07 07:17:41;;;;;;;14.23;7.80;;;9.40;99.90;;;;;;5060777;28;20052;-66
2022/11/07 07:20:09;;;;;;;12.18;7.65;;;9.40;99.90;;;;;;5059433;28;20052;-67
2022/11/07 07:22:36;;;;;;;12.60;7.18;;;9.40;99.90;;;;;;5059635;28;20610;-64
2022/11/07 07:25:03;;;;;;;8.23;6.53;;;9.50;99.90;;;;;;5062229;28;20076;-67
2022/11/07 07:27:30;;;;;;;18.83;9.32;;;9.40;99.90;;;;;;5055895;28;20417;-63
2022/11/07 07:29:56;;;;;;;9.60;8.35;;;9.50;99.90;;;;;;5062665;28;20045;-66
2022/11/07 07:32:24;;;;;;;13.30;7.82;;;9.50;99.90;;;;;;5056960;28;20163;-67
2022/11/07 07:34:51;;;;;;;12.13;7.78;;;9.50;99.90;;;;;;5056334;28;20048;-63
2022/11/07 07:37:18;;;;;;;13.60;7.60;;;9.50;99.90;;;;;;5051729;28;20048;-65
2022/11/07 07:39:45;;;;;;;12.77;7.53;;;9.60;99.90;;;;;;5061876;28;20124;-66
2022/11/07 07:42:11;;;;;;;13.23;7.32;;;9.60;99.90;;;;;;5056552;28;20072;-64
2022/11/07 07:44:43;;;;;;;19.27;8.27;;;9.60;99.90;;;;;;5046565;28;20067;-63
2022/11/07 07:47:10;;;;;;;10.57;6.32;;;9.60;99.90;;;;;;5049285;28;20045;-76
2022/11/07 07:49:37;;;;;;;15.27;7.47;;;9.70;99.90;;;;;;5063532;28;20195;-64
2022/11/07 07:52:04;;;;;;;11.27;7.95;;;9.70;99.90;;;;;;5062802;28;20067;-68
2022/11/07 07:54:31;;;;;;;11.45;7.57;;;9.70;99.90;;;;;;5058434;28;20409;-71
2022/11/07 07:57:00;;;;;;;13.18;8.20;;;9.70;99.90;;;;;;5062754;28;20063;-66
2022/11/07 07:59:27;;;;;;;11.85;7.97;;;9.80;99.90;;;;;;5061379;28;20131;-70
2022/11/07 08:01:54;;;;;;;8.75;6.32;;;9.70;99.90;;;;;;5060947;28;20132;-75
2022/11/07 08:04:23;;;;;;;8.13;5.97;;;9.80;99.90;;;;;;5063731;28;20454;-64
2022/11/07 08:06:50;;;;;;;9.75;7.75;;;9.70;99.90;;;;;;5058127;28;20143;-69
2022/11/07 08:09:17;;;;;;;11.05;6.90;;;9.70;99.90;;;;;;5054681;28;20041;-65
2022/11/07 08:11:44;;;;;;;13.20;8.80;;;9.70;99.90;;;;;;5056017;28;20044;-65
2022/11/07 08:14:10;;;;;;;15.75;8.35;;;9.70;99.90;;;;;;5063683;28;20139;-64
2022/11/07 08:16:37;;;;;;;12.90;6.90;;;9.80;99.90;;;;;;5062890;28;20743;-67
2022/11/07 08:19:04;;;;;;;11.73;7.93;;;9.80;99.90;;;;;;5065609;28;20102;-66
2022/11/07 08:21:31;;;;;;;14.88;9.23;;;9.80;99.90;;;;;;5066150;28;20045;-63
2022/11/07 08:23:59;;;;;;;11.07;6.65;;;9.80;99.90;;;;;;5061660;28;20082;-73
2022/11/07 08:26:26;;;;;;;8.88;7.32;;;9.90;99.90;;;;;;5063755;28;20049;-65
2022/11/07 08:28:53;;;;;;;13.27;8.02;;;9.90;99.90;;;;;;5066551;28;20434;-65
2022/11/07 08:31:20;;;;;;;13.18;8.00;;;9.90;99.90;;;;;;5056414;28;20163;-73
2022/11/07 08:33:47;;;;;;;9.68;7.35;;;10.00;99.90;;;;;;5067761;28;20072;-69
2022/11/07 08:36:14;;;;;;;8.50;5.63;;;10.00;99.90;;;;;;5066867;28;20090;-64
2022/11/07 08:38:41;;;;;;;11.40;7.40;;;9.90;99.90;;;;;;5070138;28;20055;-72
2022/11/07 08:41:08;;;;;;;9.23;6.32;;;10.00;99.90;;;;;;5065158;28;20054;-70
2022/11/07 08:43:35;;;;;;;17.63;8.77;;;10.00;99.90;;;;;;5063777;28;20067;-69
2022/11/07 08:46:02;;;;;;;11.95;8.75;;;10.00;99.90;;;;;;5063700;28;20163;-70
2022/11/07 08:48:29;;;;;;;9.88;7.15;;;10.00;99.90;;;;;;5065401;28;20777;-66
2022/11/07 08:50:57;;;;;;;14.25;7.57;;;10.00;99.90;;;;;;5062738;28;20067;-65
2022/11/07 08:53:25;;;;;;;14.57;7.35;;;10.00;99.90;;;;;;5065897;28;20044;-73
2022/11/07 08:55:59;;;;;;;8.30;7.50;;;10.00;99.90;;;;;;5066690;28;20063;-73
2022/11/07 08:58:25;;;;;;;13.32;7.80;;;10.10;99.90;;;;;;5062982;28;20176;-69
2022/11/07 09:00:56;;;;;;;11.75;7.68;;;10.00;99.90;;;;;;5063833;28;20053;-68
2022/11/07 09:03:23;;;;;;;11.45;6.90;;;10.00;99.90;;;;;;5064528;28;20468;-64
2022/11/07 09:06:10;;;;;;;13.30;7.85;;;10.10;99.90;;;;;;5063154;28;20064;-66
2022/11/07 09:08:37;;;;;;;9.68;6.78;;;10.10;99.90;;;;;;5064344;28;20155;-67
2022/11/07 09:11:05;;;;;;;11.35;7.30;;;10.10;99.90;;;;;;5043011;28;20041;-68
2022/11/07 09:13:33;;;;;;;16.85;9.57;;;10.10;99.90;;;;;;5062369;28;20040;-65
2022/11/07 09:16:01;;;;;;;12.85;9.45;;;10.10;99.90;;;;;;5065580;28;20386;-70
2022/11/07 09:18:29;;;;;;;12.88;8.50;;;10.10;99.90;;;;;;5063184;28;20084;-63
2022/11/07 09:20:56;;;;;;;12.60;7.93;;;10.00;99.90;;;;;;5066733;28;20045;-65
2022/11/07 09:23:24;;;;;;;14.45;8.13;;;10.00;99.90;;;;;;5068143;28;20048;-64
2022/11/07 09:25:51;;;;;;;15.40;9.77;;;10.00;99.90;;;;;;5065534;28;20510;-72
2022/11/07 09:28:17;;;;;;;12.07;9.82;;;10.00;99.90;;;;;;5066243;28;20473;-67
2022/11/07 09:30:44;;;;;;;15.43;9.93;;;9.90;99.90;;;;;;5049285;28;20071;-63
2022/11/07 09:33:11;;;;;;;9.23;8.05;;;9.90;99.90;;;;;;5061403;28;20677;-63
2022/11/07 09:35:38;;;;;;;12.55;8.80;;;10.00;99.90;;;;;;5064880;28;20139;-70
2022/11/07 09:38:05;;;;;;;14.68;9.70;;;9.90;99.90;;;;;;5061259;28;20672;-66
2022/11/07 09:40:39;;;;;;;12.90;11.02;;;9.90;99.90;;;;;;5063371;28;20770;-64
2022/11/07 09:43:25;;;;;;;19.52;8.82;;;9.90;99.90;;;;;;5061361;28;20086;-65
2022/11/07 09:46:10;;;;;;;15.90;10.00;;;9.90;99.90;;;;;;5063121;28;20041;-69
2022/11/07 09:48:42;;;;;;;12.75;8.00;;;10.00;99.90;;;;;;5059697;28;20131;-64
2022/11/07 09:51:19;;;;;;;14.77;8.07;;;10.00;99.90;;;;;;5057344;28;20052;-69
2022/11/07 09:53:54;;;;;;;11.10;7.80;;;10.00;99.90;;;;;;5063416;28;20040;-75
2022/11/07 09:56:21;;;;;;;11.93;8.98;;;10.00;99.90;;;;;;5064425;28;20041;-69
2022/11/07 09:58:53;;;;;;;17.20;9.32;;;10.00;99.90;;;;;;5065610;28;20155;-68
2022/11/07 10:01:21;;;;;;;19.30;10.60;;;10.00;99.90;;;;;;5063692;28;20048;-72
2022/11/07 10:03:48;;;;;;;10.27;8.85;;;10.00;99.90;;;;;;5063881;28;20477;-68
2022/11/07 10:06:44;;;;;;;10.60;7.65;;;10.00;99.90;;;;;;5060992;28;20390;-67
2022/11/07 10:09:18;;;;;;;12.15;8.20;;;10.00;99.90;;;;;;5053550;28;20097;-68
2022/11/07 10:12:03;;;;;;;13.18;9.23;;;10.00;99.90;;;;;;5060431;28;20056;-67
2022/11/07 10:14:54;;;;;;;11.23;8.57;;;10.00;99.90;;;;;;5063996;28;20048;-70
2022/11/07 10:17:33;;;;;;;14.55;8.65;;;10.00;99.90;;;;;;5050318;28;20472;-67
2022/11/07 10:20:06;;;;;;;13.52;8.23;;;9.90;99.90;;;;;;5051039;28;20044;-71
2022/11/07 10:22:44;;;;;;;13.13;8.25;;;9.90;99.90;;;;;;5060835;28;20792;-67
2022/11/07 10:25:27;;;;;;;14.52;9.23;;;9.90;99.90;;;;;;5059305;28;20060;-69
2022/11/07 10:28:10;;;;;;;19.25;10.63;;;9.90;99.90;;;;;;5058979;28;20364;-67
2022/11/07 10:30:37;;;;;;;14.93;10.48;;;9.90;99.90;;;;;;5063438;28;20135;-69
2022/11/07 10:33:22;;;;;;;11.50;9.10;;;9.90;99.90;;;;;;5063452;28;20458;-70
2022/11/07 10:35:55;;;;;;;19.35;8.95;;;10.00;99.90;;;;;;5061736;28;20052;-70
2022/11/07 10:38:26;;;;;;;14.98;9.50;;;10.00;99.90;;;;;;5063628;28;20037;-69
2022/11/07 10:40:53;;;;;;;15.10;9.55;;;10.10;99.90;;;;;;5060927;28;20698;-70
2022/11/07 10:43:36;;;;;;;11.07;9.05;;;10.10;99.90;;;;;;5057990;28;20044;-67
2022/11/07 10:46:12;;;;;;;17.02;11.45;;;10.10;99.90;;;;;;5062443;28;20048;-70
2022/11/07 10:48:53;;;;;;;17.27;9.02;;;10.20;99.90;;;;;;5063925;28;20063;-68
2022/11/07 10:51:20;;;;;;;14.70;11.00;;;10.20;99.90;;;;;;5059949;28;20053;-69
2022/11/07 10:53:47;;;;;;;14.93;9.88;;;10.20;99.90;;;;;;5065041;28;20049;-67
2022/11/07 10:56:18;;;;;;;15.90;9.88;;;10.30;99.90;;;;;;5067541;28;20048;-68
2022/11/07 10:58:45;;;;;;;10.80;9.40;;;10.30;99.90;;;;;;5062598;28;20500;-68
2022/11/07 11:01:12;;;;;;;12.02;8.80;;;10.30;99.90;;;;;;5060316;28;20052;-68
2022/11/07 11:03:41;;;;;;;12.73;7.45;;;10.30;99.90;;;;;;5063020;28;20410;-67
2022/11/07 11:06:29;;;;;;;11.50;9.05;;;10.30;99.90;;;;;;5062184;28;20124;-70
2022/11/07 11:08:57;;;;;;;12.07;7.18;;;10.30;99.90;;;;;;5053000;28;20148;-68
2022/11/07 11:11:32;;;;;;;11.27;7.38;;;10.30;99.90;;;;;;5045773;28;20045;-67
2022/11/07 11:14:10;;;;;;;11.20;7.57;;;10.30;99.90;;;;;;5053237;28;20044;-68
2022/11/07 11:16:40;;;;;;;10.40;6.60;;;10.30;99.90;;;;;;5055169;28;20106;-67
2022/11/07 11:19:22;;;;;;;9.90;6.75;;;10.40;99.90;;;;;;5061386;28;20813;-68
2022/11/07 11:21:51;;;;;;;13.10;6.88;;;10.40;99.90;;;;;;5045079;28;20075;-68
2022/11/07 11:24:36;;;;;;;11.25;7.35;;;10.40;99.90;;;;;;5062475;28;20752;-67
2022/11/07 11:27:12;;;;;;;9.85;5.93;;;10.40;99.90;;;;;;5054598;28;20048;-68
2022/11/07 11:29:44;;;;;;;10.90;6.82;;;10.40;99.90;;;;;;5055340;28;20041;-69
2022/11/07 11:32:26;;;;;;;9.63;7.05;;;10.50;99.90;;;;;;5054811;28;20083;-69
2022/11/07 11:35:07;;;;;;;8.05;6.75;;;10.40;99.90;;;;;;5061490;28;20152;-69
2022/11/07 11:37:40;;;;;;;8.07;5.45;;;10.50;99.90;;;;;;5057097;28;20044;-66
2022/11/07 11:40:18;;;;;;;12.13;6.45;;;10.50;99.90;;;;;;5064767;28;20501;-70
2022/11/07 11:43:20;;;;;;;15.02;6.68;;;10.50;99.90;;;;;;5050518;28;20056;-67
2022/11/07 11:46:04;;;;;;;10.35;6.63;;;10.50;99.90;;;;;;4984934;28;20053;-68
2022/11/07 11:48:45;;;;;;;12.23;6.90;;;10.50;99.90;;;;;;5061929;28;20193;-69
2022/11/07 11:51:21;;;;;;;7.22;5.43;;;10.50;99.90;;;;;;5050572;28;20180;-68
2022/11/07 11:53:48;;;;;;;9.82;5.78;;;10.50;99.90;;;;;;5053599;28;20052;-67
2022/11/07 11:56:29;;;;;;;10.63;6.50;;;10.50;99.90;;;;;;5051814;28;20052;-68
2022/11/07 11:58:58;;;;;;;;;;;10.60;99.90;;;;;;5054775;28;20166;-69
2022/11/07 12:01:38;;;;;;;9.45;6.28;;;10.60;99.90;;;;;;5062390;28;20455;-74
2022/11/07 12:04:21;;;;;;;10.10;6.65;;;10.60;99.90;;;;;;5053995;28;20056;-70
2022/11/07 12:06:53;;;;;;;10.30;5.93;;;10.60;99.90;;;;;;5050461;28;20352;-73
2022/11/07 12:09:35;;;;;;;8.55;5.63;;;10.70;99.90;;;;;;5061499;28;20048;-69
2022/11/07 12:12:15;;;;;;;8.85;5.63;;;10.70;99.90;;;;;;5062555;28;20123;-71
2022/11/07 12:15:11;;;;;;;8.48;6.30;;;10.80;99.90;;;;;;5061481;28;20521;-68
2022/11/07 12:17:55;;;;;;;10.95;5.90;;;10.80;99.90;;;;;;5036947;28;20148;-69
2022/11/07 12:20:31;;;;;;;7.32;5.88;;;10.80;99.90;;;;;;5052315;28;20049;-67
2022/11/07 12:23:03;;;;;;;8.55;6.53;;;10.80;99.90;;;;;;5062223;28;20110;-71
2022/11/07 12:25:49;;;;;;;8.68;5.70;;;10.80;99.90;;;;;;5060071;28;20489;-68
2022/11/07 12:28:34;;;;;;;7.53;5.78;;;10.80;99.90;;;;;;5062297;28;20045;-68
2022/11/07 12:31:15;;;;;;;7.32;5.45;;;10.80;99.90;;;;;;5058629;28;20045;-72
2022/11/07 12:34:01;;;;;;;8.10;6.90;;;10.90;99.90;;;;;;5036511;28;20049;-69
2022/11/07 12:36:59;;;;;;;10.23;6.30;;;10.80;99.90;;;;;;5063323;28;20067;-67
2022/11/07 12:40:00;;;;;;;8.18;6.13;;;10.90;99.90;;;;;;5055986;28;20098;-72
2022/11/07 12:42:59;;;;;;;9.85;6.25;;;10.80;99.90;;;;;;5069589;28;20115;-69
2022/11/07 12:45:35;;;;;;;12.57;6.88;;;10.80;99.90;;;;;;5058563;28;20109;-68
2022/11/07 12:48:34;;;;;;;11.55;6.22;;;10.80;99.90;;;;;;5059979;28;20078;-70
2022/11/07 12:51:08;;;;;;;7.55;6.63;;;10.70;99.90;;;;;;4999948;28;20085;-67
2022/11/07 12:53:41;;;;;;;9.68;6.22;;;10.70;99.90;;;;;;5053345;28;20149;-72
2022/11/07 12:56:14;;;;;;;7.78;6.95;;;10.70;99.90;;;;;;5061320;28;20044;-70
2022/11/07 12:58:43;;;;;;;10.35;6.28;;;10.70;99.90;;;;;;5059824;28;20120;-66
2022/11/07 13:01:17;;;;;;;9.30;6.45;;;10.70;99.90;;;;;;5061919;28;20119;-67
2022/11/07 13:04:08;;;;;;;11.88;5.85;;;10.70;99.90;;;;;;5061889;28;20048;-69
2022/11/07 13:06:39;;;;;;;8.68;5.70;;;10.70;99.90;;;;;;5041425;28;20055;-68
2022/11/07 13:09:15;;;;;;;12.65;6.57;;;10.80;99.90;;;;;;5064206;28;20041;-70
2022/11/07 13:12:05;;;;;;;11.88;6.20;;;10.80;99.90;;;;;;5066517;28;20072;-68
2022/11/07 13:14:36;;;;;;;13.40;5.97;;;10.80;99.90;;;;;;5065044;28;20041;-67
2022/11/07 13:17:23;;;;;;;10.68;6.10;;;10.90;99.90;;;;;;5051685;28;20095;-68
2022/11/07 13:20:00;;;;;;;11.15;5.50;;;10.90;99.90;;;;;;5067729;28;20586;-69
2022/11/07 13:22:32;;;;;;;10.77;6.80;;;10.90;99.90;;;;;;5060534;28;20132;-67
2022/11/07 13:25:10;;;;;;;9.65;6.45;;;10.90;99.90;;;;;;5065363;28;20067;-67